createdAt,value
2019-04-01T00:02:15.567Z,2.17
2019-04-01T00:04:44.135Z,2.30
2019-04-01T00:07:12.840Z,1.90
2019-04-01T00:09:41.594Z,1.80
2019-04-01T00:12:12.483Z,1.97
2019-04-01T00:14:41.041Z,2.27
2019-04-01T00:17:09.808Z,2.40
2019-04-01T00:19:38.429Z,2.13
2019-04-01T00:22:07.047Z,2.57
2019-04-01T00:24:35.723Z,2.20
2019-04-01T00:27:04.431Z,2.70
2019-04-01T00:29:33.117Z,1.97
2019-04-01T00:32:01.788Z,3.13
2019-04-01T00:34:30.477Z,3.33
2019-04-01T00:36:59.047Z,1.93
2019-04-01T00:39:27.705Z,1.70
2019-04-01T00:41:58.353Z,1.77
2019-04-01T00:44:28.388Z,1.37
2019-04-01T00:46:57.105Z,1.80
2019-04-01T00:49:25.852Z,1.70
2019-04-01T00:51:55.242Z,2.27
2019-04-01T00:54:23.831Z,1.83
2019-04-01T00:56:52.387Z,1.80
2019-04-01T00:59:20.937Z,1.77
2019-04-01T01:01:50.636Z,1.70
2019-04-01T01:04:19.210Z,1.50
2019-04-01T01:06:47.763Z,2.00
2019-04-01T01:09:17.255Z,1.43
2019-04-01T01:11:45.880Z,1.50
2019-04-01T01:14:14.503Z,1.80
2019-04-01T01:16:43.240Z,1.43
2019-04-01T01:19:12.062Z,1.63
2019-04-01T01:21:40.691Z,1.40
2019-04-01T01:24:09.285Z,1.60
2019-04-01T01:26:37.842Z,1.60
2019-04-01T01:29:06.464Z,1.37
2019-04-01T01:31:37.814Z,1.60
2019-04-01T01:34:06.439Z,1.50
2019-04-01T01:36:35.121Z,1.43
2019-04-01T01:39:05.860Z,1.33
2019-04-01T01:41:34.860Z,1.33
2019-04-01T01:44:03.998Z,1.60
2019-04-01T01:46:32.662Z,1.87
2019-04-01T01:49:01.792Z,1.30
2019-04-01T01:51:30.428Z,1.50
2019-04-01T01:53:59.081Z,1.40
2019-04-01T01:56:27.862Z,1.47
2019-04-01T01:58:56.682Z,1.50
2019-04-01T02:01:25.342Z,1.80
2019-04-01T02:03:53.959Z,1.07
2019-04-01T02:06:22.592Z,1.30
2019-04-01T02:08:53.772Z,1.30
2019-04-01T02:11:26.112Z,1.20
2019-04-01T02:13:54.672Z,1.87
2019-04-01T02:16:23.290Z,1.10
2019-04-01T02:18:51.916Z,1.83
2019-04-01T02:21:20.476Z,1.27
2019-04-01T02:23:49.070Z,1.60
2019-04-01T02:26:17.628Z,1.33
2019-04-01T02:28:46.259Z,1.50
2019-04-01T02:31:16.062Z,1.50
2019-04-01T02:33:44.741Z,1.50
2019-04-01T02:36:13.636Z,1.60
2019-04-01T02:38:42.223Z,1.10
2019-04-01T02:41:10.859Z,1.47
2019-04-01T02:43:39.488Z,1.63
2019-04-01T02:46:08.224Z,1.90
2019-04-01T02:48:37.034Z,1.63
2019-04-01T02:51:05.845Z,1.57
2019-04-01T02:53:34.497Z,1.30
2019-04-01T02:56:03.264Z,1.47
2019-04-01T02:58:31.765Z,1.40
2019-04-01T03:01:00.426Z,1.43
2019-04-01T03:03:30.513Z,1.40
2019-04-01T03:05:59.161Z,1.43
2019-04-01T03:08:27.815Z,1.30
2019-04-01T03:10:56.512Z,1.10
2019-04-01T03:13:26.350Z,1.43
2019-04-01T03:15:55.164Z,1.40
2019-04-01T03:18:23.897Z,1.30
2019-04-01T03:20:52.567Z,1.47
2019-04-01T03:23:22.760Z,1.00
2019-04-01T03:25:51.477Z,2.07
2019-04-01T03:28:20.091Z,1.30
2019-04-01T03:30:48.744Z,1.77
2019-04-01T03:33:17.380Z,1.63
2019-04-01T03:35:46.002Z,1.53
2019-04-01T03:38:14.777Z,1.50
2019-04-01T03:40:43.469Z,1.33
2019-04-01T03:43:12.111Z,1.20
2019-04-01T03:45:41.080Z,1.43
2019-04-01T03:48:09.717Z,1.50
2019-04-01T03:50:38.420Z,1.80
2019-04-01T03:53:07.073Z,1.77
2019-04-01T03:55:36.002Z,1.17
2019-04-01T03:58:04.710Z,1.23
2019-04-01T04:00:33.495Z,1.27
2019-04-01T04:03:02.138Z,1.60
2019-04-01T04:05:30.776Z,1.10
2019-04-01T04:07:59.503Z,1.00
2019-04-01T04:10:28.206Z,1.23
2019-04-01T04:12:56.895Z,1.50
2019-04-01T04:15:25.499Z,0.90
2019-04-01T04:17:54.128Z,1.50
2019-04-01T04:20:22.759Z,1.60
2019-04-01T04:22:51.531Z,1.53
2019-04-01T04:25:20.494Z,1.40
2019-04-01T04:27:49.053Z,1.73
2019-04-01T04:30:21.291Z,1.30
2019-04-01T04:32:49.964Z,1.93
2019-04-01T04:35:18.674Z,1.37
2019-04-01T04:37:47.332Z,1.17
2019-04-01T04:40:17.681Z,1.90
2019-04-01T04:42:46.452Z,1.20
2019-04-01T04:45:15.244Z,1.33
2019-04-01T04:47:43.948Z,2.17
2019-04-01T04:50:13.346Z,2.00
2019-04-01T04:52:41.948Z,1.53
2019-04-01T04:55:12.304Z,2.67
2019-04-01T04:57:41.002Z,2.00
2019-04-01T05:00:09.924Z,2.33
2019-04-01T05:02:44.931Z,2.40
2019-04-01T05:05:13.703Z,2.13
2019-04-01T05:07:42.278Z,2.10
2019-04-01T05:10:11.597Z,1.97
2019-04-01T05:12:40.310Z,1.30
2019-04-01T05:15:10.143Z,1.20
2019-04-01T05:17:38.848Z,1.70
2019-04-01T05:20:07.663Z,2.00
2019-04-01T05:22:40.210Z,1.30
2019-04-01T05:25:09.396Z,1.33
2019-04-01T05:27:38.164Z,1.60
2019-04-01T05:30:07.870Z,1.70
2019-04-01T05:32:37.836Z,2.80
2019-04-01T05:35:08.038Z,2.63
2019-04-01T05:37:37.466Z,4.60
2019-04-01T05:40:06.471Z,5.60
2019-04-01T05:42:35.877Z,7.57
2019-04-01T05:45:09.935Z,4.53
2019-04-01T05:47:39.986Z,4.07
2019-04-01T05:50:08.791Z,3.23
2019-04-01T05:52:37.622Z,2.13
2019-04-01T05:55:08.996Z,4.40
2019-04-01T05:57:37.396Z,2.53
2019-04-01T06:00:09.861Z,3.73
2019-04-01T06:02:38.317Z,3.47
2019-04-01T06:05:10.495Z,3.57
2019-04-01T06:07:39.214Z,3.30
2019-04-01T06:10:08.127Z,3.30
2019-04-01T06:12:37.023Z,2.00
2019-04-01T06:15:07.329Z,2.73
2019-04-01T06:17:36.137Z,3.17
2019-04-01T06:20:08.074Z,3.67
2019-04-01T06:22:36.741Z,2.27
2019-04-01T06:25:08.998Z,3.07
2019-04-01T06:27:40.270Z,2.40
2019-04-01T06:30:12.821Z,2.00
2019-04-01T06:32:45.190Z,1.97
2019-04-01T06:35:13.991Z,2.90
2019-04-01T06:37:43.181Z,2.70
2019-04-01T06:40:18.249Z,2.80
2019-04-01T06:42:42.358Z,2.90
2019-04-01T06:45:12.788Z,2.53
2019-04-01T06:47:44.389Z,2.00
2019-04-01T06:50:14.550Z,2.40
2019-04-01T06:52:43.211Z,2.30
2019-04-01T06:55:12.177Z,1.93
2019-04-01T06:57:40.880Z,1.70
2019-04-01T07:00:09.974Z,1.93
2019-04-01T07:02:39.010Z,2.00
2019-04-01T07:05:12.348Z,1.77
2019-04-01T07:07:39.755Z,2.27
2019-04-01T07:10:26.714Z,2.87
2019-04-01T07:12:55.433Z,2.63
2019-04-01T07:15:25.702Z,2.57
2019-04-01T07:18:04.603Z,2.40
2019-04-01T07:20:33.592Z,2.33
2019-04-01T07:23:06.048Z,2.03
2019-04-01T07:25:34.704Z,2.27
2019-04-01T07:28:03.451Z,2.33
2019-04-01T07:30:32.149Z,1.90
2019-04-01T07:33:00.854Z,2.37
2019-04-01T07:35:29.593Z,2.87
2019-04-01T07:37:58.360Z,2.43
2019-04-01T07:40:30.298Z,2.27
2019-04-01T07:42:59.636Z,2.40
2019-04-01T07:45:28.331Z,2.63
2019-04-01T07:47:58.503Z,2.47
2019-04-01T07:50:29.756Z,2.67
2019-04-01T07:53:01.275Z,2.23
2019-04-01T07:55:31.701Z,2.10
2019-04-01T07:58:04.582Z,1.90
2019-04-01T08:00:33.288Z,2.07
2019-04-01T08:03:05.113Z,2.33
2019-04-01T08:05:35.168Z,2.07
2019-04-01T08:08:06.752Z,2.30
2019-04-01T08:10:37.414Z,2.13
2019-04-01T08:13:06.082Z,2.17
2019-04-01T08:15:37.520Z,1.80
2019-04-01T08:18:06.382Z,1.90
2019-04-01T08:20:36.860Z,2.33
2019-04-01T08:23:06.637Z,2.33
2019-04-01T08:25:35.254Z,1.83
2019-04-01T08:28:03.965Z,2.33
2019-04-01T08:30:33.320Z,2.07
2019-04-01T08:33:11.081Z,2.20
2019-04-01T08:35:40.002Z,2.83
2019-04-01T08:38:08.702Z,2.23
2019-04-01T08:40:37.523Z,2.30
2019-04-01T08:43:06.567Z,2.20
2019-04-01T08:45:35.578Z,2.67
2019-04-01T08:48:06.185Z,2.13
2019-04-01T08:50:34.847Z,2.17
2019-04-01T08:53:03.656Z,2.40
2019-04-01T08:55:32.569Z,2.87
2019-04-01T08:58:01.442Z,1.90
2019-04-01T09:00:30.143Z,2.10
2019-04-01T09:03:01.639Z,1.80
2019-04-01T09:05:30.356Z,2.60
2019-04-01T09:07:59.244Z,2.07
2019-04-01T09:10:29.441Z,1.90
2019-04-01T09:12:59.442Z,1.83
2019-04-01T09:15:28.247Z,1.87
2019-04-01T09:17:57.039Z,2.20
2019-04-01T09:20:26.879Z,2.63
2019-04-01T09:22:59.436Z,1.73
2019-04-01T09:25:29.676Z,1.93
2019-04-01T09:27:58.305Z,1.80
2019-04-01T09:30:29.787Z,1.87
2019-04-01T09:32:58.446Z,1.77
2019-04-01T09:35:27.719Z,2.07
2019-04-01T09:37:56.362Z,1.83
2019-04-01T09:40:28.254Z,2.10
2019-04-01T09:42:57.254Z,1.97
2019-04-01T09:45:27.613Z,2.30
2019-04-01T09:48:02.194Z,2.00
2019-04-01T09:50:31.289Z,1.80
2019-04-01T09:52:59.991Z,1.60
2019-04-01T09:55:28.836Z,2.37
2019-04-01T09:58:02.452Z,2.80
2019-04-01T10:00:30.843Z,2.20
2019-04-01T10:02:59.592Z,2.40
2019-04-01T10:05:28.337Z,3.10
2019-04-01T10:07:58.695Z,2.47
2019-04-01T10:10:33.115Z,1.80
2019-04-01T10:13:03.472Z,2.10
2019-04-01T10:15:32.192Z,2.03
2019-04-01T10:18:00.875Z,1.90
2019-04-01T10:20:34.767Z,1.97
2019-04-01T10:23:08.628Z,1.93
2019-04-01T10:25:39.940Z,2.00
2019-04-01T10:28:08.850Z,2.40
2019-04-01T10:30:40.765Z,2.05
2019-04-01T10:33:09.623Z,2.25
2019-04-01T10:35:39.321Z,2.20
2019-04-01T10:38:08.070Z,2.20
2019-04-01T10:40:37.881Z,2.20
2019-04-01T10:43:06.596Z,2.52
2019-04-01T10:45:35.592Z,2.20
2019-04-01T10:48:04.620Z,2.80
2019-04-01T10:50:33.588Z,2.40
2019-04-01T10:53:02.596Z,1.92
2019-04-01T10:55:31.313Z,2.47
2019-04-01T10:58:00.054Z,2.00
2019-04-01T11:00:31.626Z,2.10
2019-04-01T11:03:00.398Z,2.10
2019-04-01T11:05:32.201Z,2.23
2019-04-01T11:08:01.191Z,3.13
2019-04-01T11:10:32.249Z,2.40
2019-04-01T11:13:00.960Z,2.43
2019-04-01T11:15:32.693Z,2.20
2019-04-01T11:18:03.192Z,2.57
2019-04-01T11:20:32.013Z,2.40
2019-04-01T11:23:02.618Z,2.00
2019-04-01T11:25:31.083Z,2.37
2019-04-01T11:27:59.780Z,2.13
2019-04-01T11:30:30.791Z,2.47
2019-04-01T11:33:07.568Z,2.43
2019-04-01T11:35:38.709Z,2.93
2019-04-01T11:38:07.316Z,2.23
2019-04-01T11:40:38.787Z,1.97
2019-04-01T11:43:06.743Z,2.27
2019-04-01T11:45:35.724Z,2.23
2019-04-01T11:48:07.535Z,2.63
2019-04-01T11:50:36.184Z,2.70
2019-04-01T11:53:09.091Z,2.30
2019-04-01T11:55:41.544Z,2.03
2019-04-01T11:58:10.569Z,2.17
2019-04-01T12:00:39.278Z,2.33
2019-04-01T12:03:08.023Z,2.17
2019-04-01T12:05:36.658Z,2.20
2019-04-01T12:08:05.852Z,2.10
2019-04-01T12:10:34.534Z,2.33
2019-04-01T12:13:03.354Z,2.17
2019-04-01T12:15:33.673Z,2.20
2019-04-01T12:18:04.245Z,2.20
2019-04-01T12:20:33.381Z,1.90
2019-04-01T12:23:04.763Z,2.47
2019-04-01T12:25:33.429Z,2.23
2019-04-01T12:28:06.132Z,2.20
2019-04-01T12:30:34.790Z,2.77
2019-04-01T12:33:03.675Z,2.52
2019-04-01T12:35:32.243Z,2.60
2019-04-01T12:38:05.084Z,2.42
2019-04-01T12:40:31.377Z,2.87
2019-04-01T12:43:00.006Z,3.12
2019-04-01T12:45:29.743Z,2.20
2019-04-01T12:47:58.413Z,2.33
2019-04-01T12:50:30.264Z,2.40
2019-04-01T12:53:01.850Z,2.37
2019-04-01T12:55:30.526Z,2.35
2019-04-01T12:57:59.153Z,2.20
2019-04-01T13:00:29.359Z,3.00
2019-04-01T13:02:58.236Z,2.67
2019-04-01T13:05:29.763Z,2.55
2019-04-01T13:07:58.337Z,2.35
2019-04-01T13:10:27.088Z,2.75
2019-04-01T13:12:56.111Z,2.50
2019-04-01T13:15:24.855Z,2.30
2019-04-01T13:17:53.743Z,2.62
2019-04-01T13:20:36.690Z,2.87
2019-04-01T13:22:54.271Z,2.83
2019-04-01T13:25:23.066Z,2.90
2019-04-01T13:27:54.823Z,3.10
2019-04-01T13:30:26.412Z,3.58
2019-04-01T13:32:55.507Z,2.62
2019-04-01T13:35:24.204Z,2.55
2019-04-01T13:37:52.848Z,2.80
2019-04-01T13:40:23.138Z,3.07
2019-04-01T13:42:53.237Z,3.50
2019-04-01T13:45:21.986Z,3.80
2019-04-01T13:47:50.720Z,3.60
2019-04-01T13:50:19.355Z,3.27
2019-04-01T13:52:48.078Z,3.10
2019-04-01T13:55:19.700Z,2.97
2019-04-01T13:57:48.400Z,3.03
2019-04-01T14:00:26.998Z,3.03
2019-04-01T14:02:53.860Z,2.87
2019-04-01T14:05:23.178Z,3.53
2019-04-01T14:07:51.854Z,3.17
2019-04-01T14:10:20.696Z,3.40
2019-04-01T14:12:58.987Z,3.83
2019-04-01T14:15:28.934Z,3.50
2019-04-01T14:18:00.792Z,3.33
2019-04-01T14:20:31.301Z,3.80
2019-04-01T14:23:03.654Z,3.50
2019-04-01T14:25:36.969Z,3.57
2019-04-01T14:28:09.436Z,3.70
2019-04-01T14:30:38.370Z,3.40
2019-04-01T14:33:11.582Z,3.50
2019-04-01T14:35:40.392Z,3.63
2019-04-01T14:38:08.984Z,2.90
2019-04-01T14:40:37.682Z,3.63
2019-04-01T14:43:06.374Z,3.07
2019-04-01T14:45:36.583Z,3.70
2019-04-01T14:48:08.186Z,4.20
2019-04-01T14:50:38.309Z,3.40
2019-04-01T14:53:07.728Z,3.40
2019-04-01T14:55:36.529Z,3.60
2019-04-01T14:58:09.562Z,3.50
2019-04-01T15:00:38.468Z,3.97
2019-04-01T15:03:14.538Z,3.40
2019-04-01T15:05:44.698Z,3.20
2019-04-01T15:08:16.298Z,3.43
2019-04-01T15:10:45.546Z,3.87
2019-04-01T15:13:15.935Z,3.70
2019-04-01T15:15:44.822Z,3.50
2019-04-01T15:18:16.765Z,3.23
2019-04-01T15:20:49.726Z,3.27
2019-04-01T15:23:18.370Z,3.03
2019-04-01T15:25:54.413Z,3.27
2019-04-01T15:28:22.476Z,3.63
2019-04-01T15:30:57.492Z,3.90
2019-04-01T15:33:30.983Z,3.50
2019-04-01T15:35:59.567Z,3.30
2019-04-01T15:38:28.465Z,2.67
2019-04-01T15:40:58.882Z,3.00
2019-04-01T15:43:27.831Z,3.33
2019-04-01T15:46:04.296Z,2.73
2019-04-01T15:48:39.733Z,3.40
2019-04-01T15:51:08.486Z,3.30
2019-04-01T15:53:40.186Z,3.17
2019-04-01T15:56:09.383Z,3.63
2019-04-01T15:58:37.940Z,3.00
2019-04-01T16:01:06.654Z,3.13
2019-04-01T16:03:35.352Z,3.20
2019-04-01T16:06:07.359Z,2.80
2019-04-01T16:08:34.322Z,4.30
2019-04-01T16:11:06.059Z,3.47
2019-04-01T16:13:40.209Z,3.50
2019-04-01T16:16:10.385Z,3.40
2019-04-01T16:18:46.254Z,3.50
2019-04-01T16:21:17.595Z,3.47
2019-04-01T16:23:47.203Z,3.80
2019-04-01T16:26:19.270Z,3.70
2019-04-01T16:28:51.131Z,3.60
2019-04-01T16:31:23.949Z,4.47
2019-04-01T16:33:55.671Z,3.23
2019-04-01T16:36:25.849Z,4.93
2019-04-01T16:38:55.713Z,3.80
2019-04-01T16:41:26.625Z,3.67
2019-04-01T16:43:58.729Z,3.93
2019-04-01T16:46:29.738Z,3.53
2019-04-01T16:48:59.043Z,3.27
2019-04-01T16:51:29.321Z,3.53
2019-04-01T16:54:00.005Z,3.80
2019-04-01T16:56:34.168Z,3.53
2019-04-01T16:59:04.617Z,3.53
2019-04-01T17:01:33.397Z,3.43
2019-04-01T17:04:02.375Z,3.50
2019-04-01T17:06:34.390Z,3.47
2019-04-01T17:09:04.804Z,3.63
2019-04-01T17:11:38.872Z,3.73
2019-04-01T17:14:09.369Z,3.93
2019-04-01T17:16:37.918Z,4.20
2019-04-01T17:19:06.627Z,3.77
2019-04-01T17:21:36.983Z,3.97
2019-04-01T17:24:05.716Z,4.23
2019-04-01T17:26:54.097Z,4.50
2019-04-01T17:29:34.884Z,3.57
2019-04-01T17:32:06.976Z,4.50
2019-04-01T17:34:36.328Z,5.27
2019-04-01T17:37:11.079Z,3.80
2019-04-01T17:39:39.810Z,4.20
2019-04-01T17:42:08.475Z,4.30
2019-04-01T17:44:38.803Z,3.57
2019-04-01T17:47:10.981Z,3.90
2019-04-01T17:49:40.934Z,3.50
2019-04-01T17:52:12.307Z,3.30
2019-04-01T17:54:42.107Z,3.77
2019-04-01T17:57:10.821Z,3.43
2019-04-01T17:59:39.708Z,4.17
2019-04-01T18:02:12.276Z,3.60
2019-04-01T18:04:45.363Z,3.47
2019-04-01T18:07:14.531Z,3.77
2019-04-01T18:09:44.906Z,4.07
2019-04-01T18:12:18.105Z,3.30
2019-04-01T18:14:58.717Z,3.37
2019-04-01T18:17:34.841Z,3.33
2019-04-01T18:20:05.344Z,3.30
2019-04-01T18:22:34.685Z,4.70
2019-04-01T18:25:09.332Z,3.13
2019-04-01T18:27:57.940Z,2.93
2019-04-01T18:30:27.392Z,3.40
2019-04-01T18:32:56.045Z,3.40
2019-04-01T18:35:25.888Z,3.07
2019-04-01T18:37:55.098Z,3.00
2019-04-01T18:40:32.977Z,2.80
2019-04-01T18:43:01.979Z,2.80
2019-04-01T18:45:31.909Z,3.10
2019-04-01T18:48:04.248Z,3.60
2019-04-01T18:50:34.389Z,2.70
2019-04-01T18:53:07.889Z,3.10
2019-04-01T18:55:40.515Z,2.90
2019-04-01T18:58:12.390Z,2.83
2019-04-01T19:00:44.423Z,3.27
2019-04-01T19:03:13.611Z,3.23
2019-04-01T19:05:47.029Z,2.90
2019-04-01T19:08:16.258Z,2.80
2019-04-01T19:10:47.959Z,2.80
2019-04-01T19:13:18.255Z,3.13
2019-04-01T19:15:49.355Z,2.50
2019-04-01T19:18:19.082Z,2.83
2019-04-01T19:20:56.206Z,2.67
2019-04-01T19:23:19.572Z,2.70
2019-04-01T19:25:48.274Z,3.30
2019-04-01T19:28:17.415Z,3.07
2019-04-01T19:30:47.143Z,2.33
2019-04-01T19:33:20.154Z,2.77
2019-04-01T19:35:48.851Z,2.50
2019-04-01T19:38:21.512Z,3.07
2019-04-01T19:40:53.282Z,3.30
2019-04-01T19:43:22.155Z,2.90
2019-04-01T19:45:53.544Z,2.60
2019-04-01T19:48:22.242Z,2.80
2019-04-01T19:50:50.910Z,2.20
2019-04-01T19:53:20.177Z,2.60
2019-04-01T19:55:48.792Z,3.17
2019-04-01T19:58:17.434Z,2.70
2019-04-01T20:00:49.095Z,2.50
2019-04-01T20:03:17.712Z,2.70
2019-04-01T20:05:46.688Z,2.53
2019-04-01T20:08:16.346Z,2.60
2019-04-01T20:10:47.371Z,2.23
2019-04-01T20:13:16.068Z,2.60
2019-04-01T20:15:44.859Z,3.43
2019-04-01T20:18:13.516Z,3.13
2019-04-01T20:20:42.249Z,3.07
2019-04-01T20:23:12.792Z,2.93
2019-04-01T20:25:41.443Z,2.80
2019-04-01T20:28:10.145Z,2.40
2019-04-01T20:30:38.894Z,2.60
2019-04-01T20:33:17.451Z,3.00
2019-04-01T20:35:38.154Z,3.17
2019-04-01T20:38:06.897Z,2.73
2019-04-01T20:40:38.364Z,2.67
2019-04-01T20:43:15.197Z,2.90
2019-04-01T20:45:50.093Z,2.70
2019-04-01T20:48:18.828Z,2.70
2019-04-01T20:50:47.522Z,2.47
2019-04-01T20:53:16.154Z,2.43
2019-04-01T20:55:48.395Z,2.90
2019-04-01T20:58:19.550Z,2.57
2019-04-01T21:00:48.181Z,2.43
2019-04-01T21:03:17.614Z,2.57
2019-04-01T21:05:46.326Z,2.57
2019-04-01T21:08:15.368Z,2.70
2019-04-01T21:10:45.079Z,2.27
2019-04-01T21:13:13.729Z,2.90
2019-04-01T21:15:44.028Z,2.70
2019-04-01T21:18:12.781Z,2.50
2019-04-01T21:20:44.178Z,2.40
2019-04-01T21:23:12.803Z,2.33
2019-04-01T21:25:44.246Z,2.53
2019-04-01T21:28:15.893Z,2.93
2019-04-01T21:30:44.606Z,1.97
2019-04-01T21:33:14.056Z,2.10
2019-04-01T21:35:43.002Z,2.40
2019-04-01T21:38:11.562Z,2.67
2019-04-01T21:40:40.226Z,2.20
2019-04-01T21:43:08.854Z,2.33
2019-04-01T21:45:37.486Z,1.97
2019-04-01T21:48:06.483Z,3.07
2019-04-01T21:50:35.515Z,2.50
2019-04-01T21:53:05.925Z,2.73
2019-04-01T21:55:36.515Z,2.50
2019-04-01T21:58:05.149Z,2.20
2019-04-01T22:00:53.338Z,2.43
2019-04-01T22:03:25.036Z,2.67
2019-04-01T22:05:55.225Z,2.40
2019-04-01T22:08:23.982Z,2.47
2019-04-01T22:10:52.685Z,2.43
2019-04-01T22:13:21.598Z,2.07
2019-04-01T22:15:50.598Z,2.33
2019-04-01T22:18:19.257Z,2.20
2019-04-01T22:20:49.922Z,2.53
2019-04-01T22:23:18.300Z,2.80
2019-04-01T22:25:49.677Z,2.60
2019-04-01T22:28:18.242Z,2.47
2019-04-01T22:30:47.076Z,2.13
2019-04-01T22:33:15.715Z,2.43
2019-04-01T22:35:44.422Z,2.63
2019-04-01T22:38:25.086Z,2.40
2019-04-01T22:40:46.595Z,2.70
2019-04-01T22:43:15.228Z,2.67
2019-04-01T22:45:48.313Z,2.70
2019-04-01T22:48:17.847Z,3.40
2019-04-01T22:50:46.426Z,2.40
2019-04-01T22:53:15.142Z,2.80
2019-04-01T22:55:43.786Z,2.57
2019-04-01T22:58:12.609Z,2.10
2019-04-01T23:00:41.832Z,2.97
2019-04-01T23:03:11.447Z,2.93
2019-04-01T23:05:40.652Z,2.20
2019-04-01T23:08:09.285Z,2.40
2019-04-01T23:10:37.849Z,2.97
2019-04-01T23:13:06.411Z,2.60
2019-04-01T23:15:35.143Z,2.80
2019-04-01T23:18:03.833Z,2.47
2019-04-01T23:20:33.435Z,2.93
2019-04-01T23:23:02.538Z,2.50
2019-04-01T23:25:31.164Z,2.23
2019-04-01T23:27:59.947Z,2.50
2019-04-01T23:30:28.683Z,3.33
2019-04-01T23:32:57.241Z,2.73
2019-04-01T23:35:26.209Z,2.50
2019-04-01T23:37:54.801Z,2.90
2019-04-01T23:40:23.445Z,2.40
2019-04-01T23:42:52.681Z,2.97
2019-04-01T23:45:21.551Z,3.00
2019-04-01T23:47:50.393Z,2.93
2019-04-01T23:50:19.095Z,2.47
2019-04-01T23:52:47.832Z,2.83
2019-04-01T23:55:16.539Z,2.90
2019-04-01T23:57:45.169Z,2.83
